sensor_id;sensor_type;location;lat;lon;timestamp;pressure;altitude;pressure_sealevel;temperature;humidity
51289;BME280;37372;52.294;5.152;2024-02-26T00:00:49;100111.72;;;4.35;79.73
51289;BME280;37372;52.294;5.152;2024-02-26T00:03:15;100117.72;;;4.31;79.89
51289;BME280;37372;52.294;5.152;2024-02-26T00:05:40;100121.31;;;4.39;79.97
51289;BME280;37372;52.294;5.152;2024-02-26T00:08:06;100112.69;;;4.42;79.21
51289;BME280;37372;52.294;5.152;2024-02-26T00:10:31;100114.31;;;4.35;79.30
51289;BME280;37372;52.294;5.152;2024-02-26T00:12:57;100122.94;;;4.34;79.23
51289;BME280;37372;52.294;5.152;2024-02-26T00:15:22;100122.13;;;4.37;78.64
51289;BME280;37372;52.294;5.152;2024-02-26T00:17:48;100109.94;;;4.32;78.87
51289;BME280;37372;52.294;5.152;2024-02-26T00:20:16;100120.25;;;4.26;79.12
51289;BME280;37372;52.294;5.152;2024-02-26T00:22:41;100124.47;;;4.21;79.10
51289;BME280;37372;52.294;5.152;2024-02-26T00:25:06;100121.81;;;4.18;79.28
51289;BME280;37372;52.294;5.152;2024-02-26T00:27:34;100120.13;;;4.20;79.35
51289;BME280;37372;52.294;5.152;2024-02-26T00:30:01;100131.34;;;4.18;78.79
51289;BME280;37372;52.294;5.152;2024-02-26T00:32:35;100120.00;;;4.14;79.17
51289;BME280;37372;52.294;5.152;2024-02-26T00:35:01;100132.22;;;4.18;79.13
51289;BME280;37372;52.294;5.152;2024-02-26T00:37:27;100134.56;;;4.04;79.43
51289;BME280;37372;52.294;5.152;2024-02-26T00:39:52;100131.88;;;3.99;79.98
51289;BME280;37372;52.294;5.152;2024-02-26T00:42:19;100141.53;;;4.05;80.02
51289;BME280;37372;52.294;5.152;2024-02-26T00:44:54;100138.81;;;3.99;80.28
51289;BME280;37372;52.294;5.152;2024-02-26T00:47:22;100141.38;;;3.97;80.30
51289;BME280;37372;52.294;5.152;2024-02-26T00:49:48;100137.03;;;3.96;79.95
51289;BME280;37372;52.294;5.152;2024-02-26T00:52:13;100142.19;;;3.93;80.12
51289;BME280;37372;52.294;5.152;2024-02-26T00:54:39;100139.44;;;3.86;80.24
51289;BME280;37372;52.294;5.152;2024-02-26T00:57:04;100142.72;;;3.78;80.32
51289;BME280;37372;52.294;5.152;2024-02-26T00:59:29;100141.09;;;3.83;80.48
51289;BME280;37372;52.294;5.152;2024-02-26T01:01:55;100136.69;;;3.78;81.05
51289;BME280;37372;52.294;5.152;2024-02-26T01:04:21;100130.53;;;3.74;81.25
51289;BME280;37372;52.294;5.152;2024-02-26T01:06:46;100134.75;;;3.69;81.44
51289;BME280;37372;52.294;5.152;2024-02-26T01:09:14;100136.47;;;3.67;81.83
51289;BME280;37372;52.294;5.152;2024-02-26T01:11:40;100140.94;;;3.74;81.61
51289;BME280;37372;52.294;5.152;2024-02-26T01:14:06;100133.97;;;3.73;81.27
51289;BME280;37372;52.294;5.152;2024-02-26T01:16:31;100144.25;;;3.67;81.93
51289;BME280;37372;52.294;5.152;2024-02-26T01:18:57;100140.75;;;3.65;81.59
51289;BME280;37372;52.294;5.152;2024-02-26T01:21:23;100140.78;;;3.68;81.29
51289;BME280;37372;52.294;5.152;2024-02-26T01:23:48;100143.47;;;3.71;82.01
51289;BME280;37372;52.294;5.152;2024-02-26T01:26:15;100140.69;;;3.62;81.94
51289;BME280;37372;52.294;5.152;2024-02-26T01:28:41;100139.13;;;3.70;81.49
51289;BME280;37372;52.294;5.152;2024-02-26T01:31:06;100145.09;;;3.66;81.76
51289;BME280;37372;52.294;5.152;2024-02-26T01:33:34;100150.38;;;3.71;81.07
51289;BME280;37372;52.294;5.152;2024-02-26T01:36:00;100160.72;;;3.67;81.21
51289;BME280;37372;52.294;5.152;2024-02-26T01:38:27;100153.78;;;3.68;81.33
51289;BME280;37372;52.294;5.152;2024-02-26T01:40:52;100147.88;;;3.75;80.90
51289;BME280;37372;52.294;5.152;2024-02-26T01:43:18;100145.06;;;3.64;81.23
51289;BME280;37372;52.294;5.152;2024-02-26T01:45:43;100150.19;;;3.61;81.72
51289;BME280;37372;52.294;5.152;2024-02-26T01:48:09;100152.69;;;3.55;82.10
51289;BME280;37372;52.294;5.152;2024-02-26T01:50:36;100143.22;;;3.59;81.69
51289;BME280;37372;52.294;5.152;2024-02-26T01:53:04;100147.50;;;3.57;81.63
51289;BME280;37372;52.294;5.152;2024-02-26T01:55:30;100138.00;;;3.59;82.01
51289;BME280;37372;52.294;5.152;2024-02-26T01:57:55;100150.19;;;3.61;81.91
51289;BME280;37372;52.294;5.152;2024-02-26T02:00:22;100144.09;;;3.59;81.79
51289;BME280;37372;52.294;5.152;2024-02-26T02:02:49;100144.25;;;3.67;81.66
51289;BME280;37372;52.294;5.152;2024-02-26T02:05:16;100145.16;;;3.69;81.73
51289;BME280;37372;52.294;5.152;2024-02-26T02:07:45;100148.69;;;3.73;81.21
51289;BME280;37372;52.294;5.152;2024-02-26T02:10:13;100147.88;;;3.75;80.74
51289;BME280;37372;52.294;5.152;2024-02-26T02:12:43;100163.31;;;3.69;81.16
51289;BME280;37372;52.294;5.152;2024-02-26T02:15:09;100156.31;;;3.65;81.66
51289;BME280;37372;52.294;5.152;2024-02-26T02:17:35;100152.72;;;3.58;81.56
51289;BME280;37372;52.294;5.152;2024-02-26T02:20:00;100157.16;;;3.64;81.45
51289;BME280;37372;52.294;5.152;2024-02-26T02:22:27;100166.88;;;3.73;80.85
51289;BME280;37372;52.294;5.152;2024-02-26T02:24:52;100169.44;;;3.71;81.01
51289;BME280;37372;52.294;5.152;2024-02-26T02:27:18;100176.38;;;3.72;80.97
51289;BME280;37372;52.294;5.152;2024-02-26T02:29:48;100174.69;;;3.74;80.35
51289;BME280;37372;52.294;5.152;2024-02-26T02:32:14;100176.44;;;3.75;80.58
51289;BME280;37372;52.294;5.152;2024-02-26T02:34:41;100174.66;;;3.73;81.05
51289;BME280;37372;52.294;5.152;2024-02-26T02:37:06;100179.00;;;3.74;80.89
51289;BME280;37372;52.294;5.152;2024-02-26T02:39:31;100180.72;;;3.73;80.89
51289;BME280;37372;52.294;5.152;2024-02-26T02:41:57;100173.84;;;3.75;80.54
51289;BME280;37372;52.294;5.152;2024-02-26T02:44:22;100178.25;;;3.79;80.53
51289;BME280;37372;52.294;5.152;2024-02-26T02:46:48;100182.53;;;3.77;80.79
51289;BME280;37372;52.294;5.152;2024-02-26T02:49:15;100183.34;;;3.75;80.96
51289;BME280;37372;52.294;5.152;2024-02-26T02:51:42;100181.69;;;3.78;80.86
51289;BME280;37372;52.294;5.152;2024-02-26T02:54:08;100174.81;;;3.80;80.93
51289;BME280;37372;52.294;5.152;2024-02-26T02:56:34;100183.44;;;3.79;81.01
51289;BME280;37372;52.294;5.152;2024-02-26T02:59:01;100186.03;;;3.79;81.08
51289;BME280;37372;52.294;5.152;2024-02-26T03:01:27;100192.06;;;3.78;81.10
51289;BME280;37372;52.294;5.152;2024-02-26T03:03:52;100194.66;;;3.78;80.61
51289;BME280;37372;52.294;5.152;2024-02-26T03:06:18;100195.66;;;3.85;80.54
51289;BME280;37372;52.294;5.152;2024-02-26T03:08:43;100201.81;;;3.89;80.20
51289;BME280;37372;52.294;5.152;2024-02-26T03:11:13;100199.94;;;3.81;80.90
51289;BME280;37372;52.294;5.152;2024-02-26T03:13:39;100200.78;;;3.80;81.00
51289;BME280;37372;52.294;5.152;2024-02-26T03:16:05;100214.59;;;3.78;80.99
51289;BME280;37372;52.294;5.152;2024-02-26T03:18:31;100198.25;;;3.83;80.37
51289;BME280;37372;52.294;5.152;2024-02-26T03:20:56;100210.59;;;3.95;80.21
51289;BME280;37372;52.294;5.152;2024-02-26T03:23:24;100207.16;;;3.96;80.42
51289;BME280;37372;52.294;5.152;2024-02-26T03:25:52;100215.81;;;3.97;80.21
51289;BME280;37372;52.294;5.152;2024-02-26T03:28:18;100214.97;;;3.98;80.41
51289;BME280;37372;52.294;5.152;2024-02-26T03:30:43;100220.19;;;3.99;80.18
51289;BME280;37372;52.294;5.152;2024-02-26T03:33:12;100221.94;;;3.99;80.27
51289;BME280;37372;52.294;5.152;2024-02-26T03:35:37;100229.69;;;3.96;80.35
51289;BME280;37372;52.294;5.152;2024-02-26T03:38:02;100230.53;;;3.96;80.04
51289;BME280;37372;52.294;5.152;2024-02-26T03:40:28;100224.53;;;3.99;80.29
51289;BME280;37372;52.294;5.152;2024-02-26T03:42:53;100238.41;;;4.01;80.16
51289;BME280;37372;52.294;5.152;2024-02-26T03:45:19;100233.94;;;3.92;80.22
51289;BME280;37372;52.294;5.152;2024-02-26T03:47:45;100230.56;;;3.98;80.24
51289;BME280;37372;52.294;5.152;2024-02-26T03:50:10;100238.47;;;4.03;80.03
51289;BME280;37372;52.294;5.152;2024-02-26T03:52:35;100231.34;;;3.94;80.07
51289;BME280;37372;52.294;5.152;2024-02-26T03:55:01;100241.75;;;3.94;80.37
51289;BME280;37372;52.294;5.152;2024-02-26T03:57:29;100250.47;;;3.96;79.79
51289;BME280;37372;52.294;5.152;2024-02-26T03:59:54;100248.81;;;4.01;79.34
51289;BME280;37372;52.294;5.152;2024-02-26T04:02:20;100254.00;;;4.01;79.58
51289;BME280;37372;52.294;5.152;2024-02-26T04:04:46;100256.50;;;3.95;79.77
51289;BME280;37372;52.294;5.152;2024-02-26T04:07:13;100255.69;;;3.99;79.42
51289;BME280;37372;52.294;5.152;2024-02-26T04:09:38;100260.84;;;3.96;79.55
51289;BME280;37372;52.294;5.152;2024-02-26T04:12:05;100258.31;;;4.00;79.92
51289;BME280;37372;52.294;5.152;2024-02-26T04:14:33;100259.81;;;3.89;79.94
51289;BME280;37372;52.294;5.152;2024-02-26T04:16:58;100265.00;;;3.89;79.95
51289;BME280;37372;52.294;5.152;2024-02-26T04:19:23;100262.41;;;3.89;80.47
51289;BME280;37372;52.294;5.152;2024-02-26T04:21:50;100264.97;;;3.86;80.26
51289;BME280;37372;52.294;5.152;2024-02-26T04:24:15;100261.50;;;3.86;80.16
51289;BME280;37372;52.294;5.152;2024-02-26T04:26:44;100263.31;;;3.90;80.01
51289;BME280;37372;52.294;5.152;2024-02-26T04:29:19;100274.38;;;3.81;80.22
51289;BME280;37372;52.294;5.152;2024-02-26T04:31:44;100274.41;;;3.82;79.80
51289;BME280;37372;52.294;5.152;2024-02-26T04:34:11;100278.66;;;3.79;80.47
51289;BME280;37372;52.294;5.152;2024-02-26T04:36:37;100289.13;;;3.82;80.37
51289;BME280;37372;52.294;5.152;2024-02-26T04:39:02;100289.09;;;3.80;80.21
51289;BME280;37372;52.294;5.152;2024-02-26T04:41:28;100296.09;;;3.85;80.27
51289;BME280;37372;52.294;5.152;2024-02-26T04:43:53;100297.06;;;3.90;79.89
51289;BME280;37372;52.294;5.152;2024-02-26T04:46:19;100299.50;;;3.82;80.33
51289;BME280;37372;52.294;5.152;2024-02-26T04:48:45;100302.28;;;3.90;80.03
51289;BME280;37372;52.294;5.152;2024-02-26T04:51:11;100297.84;;;3.84;80.33
51289;BME280;37372;52.294;5.152;2024-02-26T04:53:37;100303.75;;;3.78;80.68
51289;BME280;37372;52.294;5.152;2024-02-26T04:56:03;100301.97;;;3.77;80.85
51289;BME280;37372;52.294;5.152;2024-02-26T04:58:29;100310.69;;;3.79;81.11
51289;BME280;37372;52.294;5.152;2024-02-26T05:00:55;100308.09;;;3.79;80.63
51289;BME280;37372;52.294;5.152;2024-02-26T05:03:21;100314.97;;;3.77;80.86
51289;BME280;37372;52.294;5.152;2024-02-26T05:05:47;100312.34;;;3.76;81.14
51289;BME280;37372;52.294;5.152;2024-02-26T05:08:20;100312.31;;;3.74;81.05
51289;BME280;37372;52.294;5.152;2024-02-26T05:10:46;100310.56;;;3.73;80.86
51289;BME280;37372;52.294;5.152;2024-02-26T05:13:11;100307.94;;;3.72;81.00
51289;BME280;37372;52.294;5.152;2024-02-26T05:15:37;100311.31;;;3.67;81.65
51289;BME280;37372;52.294;5.152;2024-02-26T05:18:02;100314.91;;;3.74;81.52
51289;BME280;37372;52.294;5.152;2024-02-26T05:20:28;100308.84;;;3.74;81.53
51289;BME280;37372;52.294;5.152;2024-02-26T05:22:54;100307.94;;;3.72;81.57
51289;BME280;37372;52.294;5.152;2024-02-26T05:25:20;100319.22;;;3.72;81.68
51289;BME280;37372;52.294;5.152;2024-02-26T05:27:48;100324.47;;;3.75;81.80
51289;BME280;37372;52.294;5.152;2024-02-26T05:30:14;100317.66;;;3.80;81.53
51289;BME280;37372;52.294;5.152;2024-02-26T05:32:40;100322.91;;;3.83;81.50
51289;BME280;37372;52.294;5.152;2024-02-26T05:35:07;100332.31;;;3.78;81.56
51289;BME280;37372;52.294;5.152;2024-02-26T05:37:32;100326.31;;;3.81;81.79
51289;BME280;37372;52.294;5.152;2024-02-26T05:39:58;100328.16;;;3.87;81.46
51289;BME280;37372;52.294;5.152;2024-02-26T05:42:24;100337.66;;;3.85;81.81
51289;BME280;37372;52.294;5.152;2024-02-26T05:44:49;100331.53;;;3.82;81.91
51289;BME280;37372;52.294;5.152;2024-02-26T05:47:15;100349.66;;;3.79;81.68
51289;BME280;37372;52.294;5.152;2024-02-26T05:49:43;100345.44;;;3.85;81.52
51289;BME280;37372;52.294;5.152;2024-02-26T05:52:08;100343.59;;;3.79;82.06
51289;BME280;37372;52.294;5.152;2024-02-26T05:54:34;100348.00;;;3.83;81.91
51289;BME280;37372;52.294;5.152;2024-02-26T05:57:01;100353.22;;;3.83;81.37
51289;BME280;37372;52.294;5.152;2024-02-26T05:59:29;100361.81;;;3.80;81.88
51289;BME280;37372;52.294;5.152;2024-02-26T06:01:55;100361.88;;;3.85;81.93
51289;BME280;37372;52.294;5.152;2024-02-26T06:04:20;100373.09;;;3.82;81.92
51289;BME280;37372;52.294;5.152;2024-02-26T06:06:46;100364.50;;;3.85;81.92
51289;BME280;37372;52.294;5.152;2024-02-26T06:09:11;100372.25;;;3.83;81.84
51289;BME280;37372;52.294;5.152;2024-02-26T06:11:37;100367.00;;;3.80;82.29
51289;BME280;37372;52.294;5.152;2024-02-26T06:14:04;100373.09;;;3.82;82.12
51289;BME280;37372;52.294;5.152;2024-02-26T06:16:29;100371.41;;;3.85;82.02
51289;BME280;37372;52.294;5.152;2024-02-26T06:18:55;100377.44;;;3.83;81.77
51289;BME280;37372;52.294;5.152;2024-02-26T06:21:27;100393.06;;;3.85;82.09
51289;BME280;37372;52.294;5.152;2024-02-26T06:23:52;100395.63;;;3.83;81.98
51289;BME280;37372;52.294;5.152;2024-02-26T06:26:17;100409.25;;;3.75;82.27
51289;BME280;37372;52.294;5.152;2024-02-26T06:28:46;100403.25;;;3.77;82.19
51289;BME280;37372;52.294;5.152;2024-02-26T06:31:11;100402.34;;;3.74;82.07
51289;BME280;37372;52.294;5.152;2024-02-26T06:33:37;100397.16;;;3.75;82.51
51289;BME280;37372;52.294;5.152;2024-02-26T06:36:02;100407.50;;;3.72;82.25
51289;BME280;37372;52.294;5.152;2024-02-26T06:38:28;100413.59;;;3.74;82.22
51289;BME280;37372;52.294;5.152;2024-02-26T06:40:53;100416.22;;;3.76;82.49
51289;BME280;37372;52.294;5.152;2024-02-26T06:43:19;100419.72;;;3.76;82.37
51289;BME280;37372;52.294;5.152;2024-02-26T06:45:44;100419.75;;;3.78;82.23
51289;BME280;37372;52.294;5.152;2024-02-26T06:48:10;100421.56;;;3.82;82.09
51289;BME280;37372;52.294;5.152;2024-02-26T06:50:35;100414.31;;;3.69;82.14
51289;BME280;37372;52.294;5.152;2024-02-26T06:53:01;100411.00;;;3.74;82.01
51289;BME280;37372;52.294;5.152;2024-02-26T06:55:27;100415.34;;;3.75;82.16
51289;BME280;37372;52.294;5.152;2024-02-26T06:57:52;100423.91;;;3.71;82.27
51289;BME280;37372;52.294;5.152;2024-02-26T07:00:17;100442.97;;;3.73;81.85
51289;BME280;37372;52.294;5.152;2024-02-26T07:02:43;100430.75;;;3.67;82.05
51289;BME280;37372;52.294;5.152;2024-02-26T07:05:09;100437.69;;;3.69;82.07
51289;BME280;37372;52.294;5.152;2024-02-26T07:07:35;100448.16;;;3.72;82.17
51289;BME280;37372;52.294;5.152;2024-02-26T07:10:01;100444.75;;;3.74;82.27
51289;BME280;37372;52.294;5.152;2024-02-26T07:12:32;100452.69;;;3.80;81.86
51289;BME280;37372;52.294;5.152;2024-02-26T07:15:07;100463.72;;;3.72;81.90
51289;BME280;37372;52.294;5.152;2024-02-26T07:17:33;100463.75;;;3.73;81.88
51289;BME280;37372;52.294;5.152;2024-02-26T07:19:59;100471.41;;;3.67;81.74
51289;BME280;37372;52.294;5.152;2024-02-26T07:22:25;100476.66;;;3.69;81.96
51289;BME280;37372;52.294;5.152;2024-02-26T07:24:50;100474.84;;;3.66;81.79
51289;BME280;37372;52.294;5.152;2024-02-26T07:27:17;100481.81;;;3.67;81.98
51289;BME280;37372;52.294;5.152;2024-02-26T07:29:43;100477.31;;;3.61;82.09
51289;BME280;37372;52.294;5.152;2024-02-26T07:32:08;100481.88;;;3.70;81.62
51289;BME280;37372;52.294;5.152;2024-02-26T07:34:34;100481.00;;;3.70;81.09
51289;BME280;37372;52.294;5.152;2024-02-26T07:37:01;100492.13;;;3.65;81.69
51289;BME280;37372;52.294;5.152;2024-02-26T07:39:26;100491.44;;;3.71;81.61
51289;BME280;37372;52.294;5.152;2024-02-26T07:41:51;100499.00;;;3.63;81.35
51289;BME280;37372;52.294;5.152;2024-02-26T07:44:18;100500.97;;;3.72;81.20
51289;BME280;37372;52.294;5.152;2024-02-26T07:46:44;100504.47;;;3.74;81.27
51289;BME280;37372;52.294;5.152;2024-02-26T07:49:10;100511.44;;;3.75;81.18
51289;BME280;37372;52.294;5.152;2024-02-26T07:51:36;100507.06;;;3.74;80.82
51289;BME280;37372;52.294;5.152;2024-02-26T07:54:04;100505.09;;;3.65;80.92
51289;BME280;37372;52.294;5.152;2024-02-26T07:56:30;100504.25;;;3.65;81.32
51289;BME280;37372;52.294;5.152;2024-02-26T07:58:55;100514.81;;;3.71;80.83
51289;BME280;37372;52.294;5.152;2024-02-26T08:01:20;100516.56;;;3.72;80.30
51289;BME280;37372;52.294;5.152;2024-02-26T08:03:46;100514.94;;;3.77;80.44
51289;BME280;37372;52.294;5.152;2024-02-26T08:06:11;100532.16;;;3.72;80.46
51289;BME280;37372;52.294;5.152;2024-02-26T08:08:37;100533.81;;;3.70;80.42
51289;BME280;37372;52.294;5.152;2024-02-26T08:11:03;100526.09;;;3.73;80.67
51289;BME280;37372;52.294;5.152;2024-02-26T08:13:28;100535.72;;;3.77;80.39
51289;BME280;37372;52.294;5.152;2024-02-26T08:15:54;100527.19;;;3.81;79.94
51289;BME280;37372;52.294;5.152;2024-02-26T08:18:20;100547.06;;;3.81;79.76
51289;BME280;37372;52.294;5.152;2024-02-26T08:20:46;100540.03;;;3.77;80.13
51289;BME280;37372;52.294;5.152;2024-02-26T08:23:13;100540.91;;;3.77;79.76
51289;BME280;37372;52.294;5.152;2024-02-26T08:25:38;100551.47;;;3.83;79.74
51289;BME280;37372;52.294;5.152;2024-02-26T08:28:03;100548.94;;;3.87;79.76
51289;BME280;37372;52.294;5.152;2024-02-26T08:30:30;100556.06;;;3.94;79.12
51289;BME280;37372;52.294;5.152;2024-02-26T08:32:56;100545.44;;;3.85;79.40
51289;BME280;37372;52.294;5.152;2024-02-26T08:35:22;100556.69;;;3.85;79.76
51289;BME280;37372;52.294;5.152;2024-02-26T08:37:48;100557.69;;;3.90;79.47
51289;BME280;37372;52.294;5.152;2024-02-26T08:40:14;100549.00;;;3.88;79.79
51289;BME280;37372;52.294;5.152;2024-02-26T08:42:44;100571.56;;;3.91;78.81
51289;BME280;37372;52.294;5.152;2024-02-26T08:45:09;100569.28;;;4.03;78.42
51289;BME280;37372;52.294;5.152;2024-02-26T08:47:35;100570.16;;;4.04;78.65
51289;BME280;37372;52.294;5.152;2024-02-26T08:50:00;100567.69;;;4.08;79.20
51289;BME280;37372;52.294;5.152;2024-02-26T08:52:25;100571.09;;;4.06;78.68
51289;BME280;37372;52.294;5.152;2024-02-26T08:54:51;100578.25;;;4.14;78.35
51289;BME280;37372;52.294;5.152;2024-02-26T08:57:16;100588.44;;;4.07;78.46
51289;BME280;37372;52.294;5.152;2024-02-26T08:59:42;100580.59;;;4.05;78.46
51289;BME280;37372;52.294;5.152;2024-02-26T09:02:08;100572.66;;;3.99;78.88
51289;BME280;37372;52.294;5.152;2024-02-26T09:04:35;100585.03;;;4.09;77.79
51289;BME280;37372;52.294;5.152;2024-02-26T09:07:01;100580.78;;;4.13;77.89
51289;BME280;37372;52.294;5.152;2024-02-26T09:09:26;100588.63;;;4.14;77.97
51289;BME280;37372;52.294;5.152;2024-02-26T09:11:52;100592.13;;;4.16;77.35
51289;BME280;37372;52.294;5.152;2024-02-26T09:14:18;100602.75;;;4.26;77.74
51289;BME280;37372;52.294;5.152;2024-02-26T09:16:44;100604.69;;;4.33;77.38
51289;BME280;37372;52.294;5.152;2024-02-26T09:19:09;100611.69;;;4.36;76.95
51289;BME280;37372;52.294;5.152;2024-02-26T09:21:35;100601.59;;;4.49;76.48
51289;BME280;37372;52.294;5.152;2024-02-26T09:24:00;100606.66;;;4.43;76.52
51289;BME280;37372;52.294;5.152;2024-02-26T09:26:26;100614.38;;;4.40;76.35
51289;BME280;37372;52.294;5.152;2024-02-26T09:28:52;100625.78;;;4.45;75.97
51289;BME280;37372;52.294;5.152;2024-02-26T09:31:17;100613.25;;;4.65;76.33
51289;BME280;37372;52.294;5.152;2024-02-26T09:33:43;100626.16;;;4.61;76.08
51289;BME280;37372;52.294;5.152;2024-02-26T09:36:10;100632.22;;;4.61;75.98
51289;BME280;37372;52.294;5.152;2024-02-26T09:38:39;100632.97;;;4.56;75.48
51289;BME280;37372;52.294;5.152;2024-02-26T09:41:05;100627.94;;;4.62;76.10
51289;BME280;37372;52.294;5.152;2024-02-26T09:43:35;100652.19;;;4.62;75.76
51289;BME280;37372;52.294;5.152;2024-02-26T09:46:01;100648.03;;;4.69;75.17
51289;BME280;37372;52.294;5.152;2024-02-26T09:48:29;100639.44;;;4.73;75.29
51289;BME280;37372;52.294;5.152;2024-02-26T09:50:55;100661.63;;;4.59;75.54
51289;BME280;37372;52.294;5.152;2024-02-26T09:53:21;100660.97;;;4.66;75.83
51289;BME280;37372;52.294;5.152;2024-02-26T09:55:47;100659.78;;;4.90;75.31
51289;BME280;37372;52.294;5.152;2024-02-26T09:58:12;100654.44;;;4.83;75.21
51289;BME280;37372;52.294;5.152;2024-02-26T10:00:47;100664.91;;;4.87;75.00
51289;BME280;37372;52.294;5.152;2024-02-26T10:03:17;100671.78;;;4.83;75.48
51289;BME280;37372;52.294;5.152;2024-02-26T10:05:44;100678.66;;;4.81;75.58
51289;BME280;37372;52.294;5.152;2024-02-26T10:08:11;100685.53;;;4.79;75.95
51289;BME280;37372;52.294;5.152;2024-02-26T10:10:38;100690.66;;;4.76;75.86
51289;BME280;37372;52.294;5.152;2024-02-26T10:13:04;100697.59;;;4.75;76.42
51289;BME280;37372;52.294;5.152;2024-02-26T10:15:38;100695.75;;;4.71;76.35
51289;BME280;37372;52.294;5.152;2024-02-26T10:18:07;100706.06;;;4.68;76.82
51289;BME280;37372;52.294;5.152;2024-02-26T10:20:33;100704.94;;;4.57;77.10
51289;BME280;37372;52.294;5.152;2024-02-26T10:23:02;100698.13;;;4.62;77.23
51289;BME280;37372;52.294;5.152;2024-02-26T10:25:28;100715.50;;;4.64;76.57
51289;BME280;37372;52.294;5.152;2024-02-26T10:27:54;100713.81;;;4.65;76.96
51289;BME280;37372;52.294;5.152;2024-02-26T10:30:21;100714.56;;;4.61;77.33
51289;BME280;37372;52.294;5.152;2024-02-26T10:32:48;100716.25;;;4.59;78.03
51289;BME280;37372;52.294;5.152;2024-02-26T10:35:15;100717.38;;;4.69;78.20
51289;BME280;37372;52.294;5.152;2024-02-26T10:37:41;100726.00;;;4.68;77.67
51289;BME280;37372;52.294;5.152;2024-02-26T10:40:11;100721.69;;;4.68;77.00
51289;BME280;37372;52.294;5.152;2024-02-26T10:42:36;100724.22;;;4.65;77.05
51289;BME280;37372;52.294;5.152;2024-02-26T10:45:03;100741.66;;;4.69;76.52
51289;BME280;37372;52.294;5.152;2024-02-26T10:47:30;100742.59;;;4.71;76.39
51289;BME280;37372;52.294;5.152;2024-02-26T10:49:56;100734.28;;;4.86;76.40
51289;BME280;37372;52.294;5.152;2024-02-26T10:52:23;100742.13;;;4.88;75.84
51289;BME280;37372;52.294;5.152;2024-02-26T10:54:53;100748.81;;;4.78;76.31
51289;BME280;37372;52.294;5.152;2024-02-26T10:57:19;100751.34;;;4.76;76.33
51289;BME280;37372;52.294;5.152;2024-02-26T10:59:48;100760.16;;;4.81;76.04
51289;BME280;37372;52.294;5.152;2024-02-26T11:02:14;100764.53;;;4.82;76.03
51289;BME280;37372;52.294;5.152;2024-02-26T11:04:41;100770.91;;;4.94;75.73
51289;BME280;37372;52.294;5.152;2024-02-26T11:07:08;100773.34;;;4.88;76.17
51289;BME280;37372;52.294;5.152;2024-02-26T11:09:35;100773.25;;;4.83;75.68
51289;BME280;37372;52.294;5.152;2024-02-26T11:12:02;100769.78;;;4.84;75.11
51289;BME280;37372;52.294;5.152;2024-02-26T11:14:33;100780.09;;;4.81;75.56
51289;BME280;37372;52.294;5.152;2024-02-26T11:17:00;100766.38;;;4.87;75.56
51289;BME280;37372;52.294;5.152;2024-02-26T11:19:26;100775.16;;;4.92;75.56
51289;BME280;37372;52.294;5.152;2024-02-26T11:21:53;100790.81;;;4.93;74.70
51289;BME280;37372;52.294;5.152;2024-02-26T11:24:18;100790.28;;;5.07;74.68
51289;BME280;37372;52.294;5.152;2024-02-26T11:26:50;100781.44;;;5.00;74.45
51289;BME280;37372;52.294;5.152;2024-02-26T11:29:20;100789.25;;;5.00;73.95
51289;BME280;37372;52.294;5.152;2024-02-26T11:31:47;100794.50;;;5.02;73.80
51289;BME280;37372;52.294;5.152;2024-02-26T11:34:12;100789.31;;;5.02;74.12
51289;BME280;37372;52.294;5.152;2024-02-26T11:36:38;100796.31;;;5.04;74.09
51289;BME280;37372;52.294;5.152;2024-02-26T11:39:04;100796.38;;;5.07;73.30
51289;BME280;37372;52.294;5.152;2024-02-26T11:41:31;100788.56;;;5.07;73.67
51289;BME280;37372;52.294;5.152;2024-02-26T11:44:03;100804.28;;;5.12;73.14
51289;BME280;37372;52.294;5.152;2024-02-26T11:46:33;100804.63;;;5.26;73.53
51289;BME280;37372;52.294;5.152;2024-02-26T11:51:56;100808.00;;;5.22;73.62
51289;BME280;37372;52.294;5.152;2024-02-26T11:54:53;100800.19;;;5.20;72.90
51289;BME280;37372;52.294;5.152;2024-02-26T11:57:38;100802.81;;;5.22;73.84
51289;BME280;37372;52.294;5.152;2024-02-26T12:02:47;100813.22;;;5.22;73.28
51289;BME280;37372;52.294;5.152;2024-02-26T12:05:20;100815.16;;;5.30;72.66
51289;BME280;37372;52.294;5.152;2024-02-26T12:07:52;100821.53;;;5.43;73.47
51289;BME280;37372;52.294;5.152;2024-02-26T12:15:23;100829.44;;;5.46;72.05
51289;BME280;37372;52.294;5.152;2024-02-26T12:17:49;100834.88;;;5.56;71.42
51289;BME280;37372;52.294;5.152;2024-02-26T12:20:16;100840.50;;;5.38;71.94
51289;BME280;37372;52.294;5.152;2024-02-26T12:22:45;100842.19;;;5.36;71.92
51289;BME280;37372;52.294;5.152;2024-02-26T12:25:13;100853.63;;;5.42;71.79
51289;BME280;37372;52.294;5.152;2024-02-26T12:27:38;100843.00;;;5.33;72.22
51289;BME280;37372;52.294;5.152;2024-02-26T12:30:04;100851.72;;;5.35;72.38
51289;BME280;37372;52.294;5.152;2024-02-26T12:32:32;100843.38;;;5.48;72.00
51289;BME280;37372;52.294;5.152;2024-02-26T12:34:58;100852.34;;;5.60;71.49
51289;BME280;37372;52.294;5.152;2024-02-26T12:37:25;100854.00;;;5.58;72.06
51289;BME280;37372;52.294;5.152;2024-02-26T12:39:51;100853.84;;;5.52;71.91
51289;BME280;37372;52.294;5.152;2024-02-26T12:42:17;100865.22;;;5.55;71.05
51289;BME280;37372;52.294;5.152;2024-02-26T12:44:53;100853.84;;;5.52;71.52
51289;BME280;37372;52.294;5.152;2024-02-26T12:47:19;100854.16;;;5.64;71.30
51289;BME280;37372;52.294;5.152;2024-02-26T12:49:47;100859.44;;;5.67;70.42
51289;BME280;37372;52.294;5.152;2024-02-26T12:52:13;100873.19;;;5.61;71.13
51289;BME280;37372;52.294;5.152;2024-02-26T12:54:39;100879.63;;;5.76;71.13
51289;BME280;37372;52.294;5.152;2024-02-26T12:57:08;100879.66;;;5.77;70.97
51289;BME280;37372;52.294;5.152;2024-02-26T12:59:35;100880.59;;;5.79;69.77
51289;BME280;37372;52.294;5.152;2024-02-26T13:02:02;100896.94;;;5.74;70.20
51289;BME280;37372;52.294;5.152;2024-02-26T13:04:29;100892.69;;;5.77;70.60
51289;BME280;37372;52.294;5.152;2024-02-26T13:06:56;100890.00;;;5.74;70.85